createdAt,value
2019-01-08T00:00:12.249Z,115.97
2019-01-08T00:02:44.809Z,110.20
2019-01-08T00:05:15.751Z,111.73
2019-01-08T00:07:46.678Z,114.50
2019-01-08T00:10:17.645Z,107.67
2019-01-08T00:12:48.663Z,106.97
2019-01-08T00:15:19.655Z,113.20
2019-01-08T00:17:50.600Z,108.00
2019-01-08T00:20:21.540Z,107.03
2019-01-08T00:22:52.472Z,106.27
2019-01-08T00:25:23.417Z,98.93
2019-01-08T00:27:54.356Z,111.03
2019-01-08T00:30:25.366Z,101.93
2019-01-08T00:32:56.298Z,103.97
2019-01-08T00:35:27.207Z,108.20
2019-01-08T00:37:58.132Z,112.27
2019-01-08T00:40:29.047Z,96.03
2019-01-08T00:42:59.969Z,95.67
2019-01-08T00:45:30.905Z,85.67
2019-01-08T00:48:01.829Z,93.10
2019-01-08T00:50:32.755Z,103.27
2019-01-08T00:53:03.668Z,96.77
2019-01-08T00:55:34.595Z,96.37
2019-01-08T00:58:05.532Z,105.83
2019-01-08T01:00:36.476Z,103.77
2019-01-08T01:03:07.456Z,107.37
2019-01-08T01:05:38.416Z,114.53
2019-01-08T01:08:09.370Z,106.80
2019-01-08T01:10:40.353Z,110.13
2019-01-08T01:13:12.388Z,108.10
2019-01-08T01:15:44.138Z,102.77
2019-01-08T01:18:15.107Z,108.63
2019-01-08T01:20:46.108Z,117.43
2019-01-08T01:23:17.048Z,108.20
2019-01-08T01:25:47.977Z,118.17
2019-01-08T01:28:18.881Z,107.20
2019-01-08T01:30:49.822Z,110.57
2019-01-08T01:33:20.771Z,109.33
2019-01-08T01:35:51.790Z,100.50
2019-01-08T01:38:22.705Z,95.90
2019-01-08T01:40:53.644Z,97.10
2019-01-08T01:43:25.677Z,98.27
2019-01-08T01:45:56.595Z,87.73
2019-01-08T01:48:27.534Z,87.13
2019-01-08T01:50:58.517Z,85.53
2019-01-08T01:53:29.467Z,93.97
2019-01-08T01:56:00.403Z,91.43
2019-01-08T01:58:31.348Z,87.87
2019-01-08T02:01:02.275Z,89.83
2019-01-08T02:03:33.260Z,75.03
2019-01-08T02:06:04.190Z,71.80
2019-01-08T02:08:35.092Z,76.83
2019-01-08T02:11:21.589Z,74.87
2019-01-08T02:13:52.512Z,77.50
2019-01-08T02:16:23.431Z,70.33
2019-01-08T02:18:54.603Z,72.17
2019-01-08T02:21:25.573Z,71.00
2019-01-08T02:23:56.519Z,66.13
2019-01-08T02:26:27.473Z,64.17
2019-01-08T02:28:58.397Z,66.10
2019-01-08T02:31:29.323Z,66.40
2019-01-08T02:34:00.333Z,63.53
2019-01-08T02:36:31.230Z,56.93
2019-01-08T02:39:02.147Z,61.07
2019-01-08T02:41:35.146Z,55.90
2019-01-08T02:44:06.231Z,76.53
2019-01-08T02:46:37.369Z,112.10
2019-01-08T02:49:08.316Z,77.43
2019-01-08T02:51:39.236Z,64.80
2019-01-08T02:54:10.146Z,54.47
2019-01-08T02:56:41.069Z,51.30
2019-01-08T02:59:12.041Z,57.17
2019-01-08T03:01:42.966Z,56.17
2019-01-08T03:04:13.891Z,56.97
2019-01-08T03:06:44.884Z,49.33
2019-01-08T03:09:15.797Z,47.03
2019-01-08T03:11:46.732Z,47.43
2019-01-08T03:14:17.673Z,36.23
2019-01-08T03:16:48.586Z,36.53
2019-01-08T03:19:19.524Z,35.80
2019-01-08T03:21:50.445Z,34.60
2019-01-08T03:24:21.407Z,29.80
2019-01-08T03:26:52.343Z,32.83
2019-01-08T03:29:23.268Z,32.63
2019-01-08T03:31:54.239Z,28.83
2019-01-08T03:34:25.151Z,26.97
2019-01-08T03:36:56.078Z,28.63
2019-01-08T03:39:27.010Z,25.07
2019-01-08T03:41:57.958Z,27.43
2019-01-08T03:44:28.880Z,25.93
2019-01-08T03:46:59.790Z,26.60
2019-01-08T03:49:30.711Z,26.70
2019-01-08T03:52:01.661Z,22.80
2019-01-08T03:54:32.655Z,23.90
2019-01-08T03:57:03.631Z,22.37
2019-01-08T03:59:41.884Z,22.47
2019-01-08T04:02:07.315Z,18.37
2019-01-08T04:04:38.222Z,19.23
2019-01-08T04:07:09.186Z,16.63
2019-01-08T04:09:40.141Z,16.90
2019-01-08T04:12:11.114Z,19.13
2019-01-08T04:14:42.049Z,16.73
2019-01-08T04:17:12.974Z,16.03
2019-01-08T04:19:43.957Z,16.53
2019-01-08T04:22:14.942Z,15.93
2019-01-08T04:24:45.855Z,17.17
2019-01-08T04:27:16.787Z,17.80
2019-01-08T04:29:50.630Z,17.27
2019-01-08T04:32:20.308Z,15.53
2019-01-08T04:34:51.234Z,17.17
2019-01-08T04:37:22.200Z,16.87
2019-01-08T04:39:53.203Z,15.57
2019-01-08T04:42:24.126Z,15.67
2019-01-08T04:44:55.052Z,15.93
2019-01-08T04:47:26.071Z,15.40
2019-01-08T04:49:56.973Z,16.57
2019-01-08T04:52:27.937Z,13.33
2019-01-08T04:54:58.854Z,12.83
2019-01-08T04:57:29.803Z,15.50
2019-01-08T05:00:00.716Z,12.23
2019-01-08T05:02:31.712Z,11.83
2019-01-08T05:05:02.646Z,12.23
2019-01-08T05:07:33.597Z,11.13
2019-01-08T05:10:04.858Z,10.20
2019-01-08T05:12:35.765Z,10.47
2019-01-08T05:15:07.097Z,9.97
2019-01-08T05:17:38.007Z,7.87
2019-01-08T05:20:08.972Z,7.40
2019-01-08T05:22:39.972Z,7.33
2019-01-08T05:25:10.902Z,6.53
2019-01-08T05:27:41.820Z,7.40
2019-01-08T05:30:12.735Z,7.40
2019-01-08T05:32:43.683Z,8.80
2019-01-08T05:35:14.608Z,5.93
2019-01-08T05:37:45.517Z,9.20
2019-01-08T05:40:16.422Z,6.53
2019-01-08T05:42:47.399Z,5.97
2019-01-08T05:45:18.310Z,4.90
2019-01-08T05:47:49.218Z,5.23
2019-01-08T05:50:20.118Z,5.57
2019-01-08T05:52:51.197Z,6.73
2019-01-08T05:55:22.114Z,6.53
2019-01-08T05:57:53.018Z,5.13
2019-01-08T06:00:23.934Z,5.60
2019-01-08T06:02:54.862Z,4.77
2019-01-08T06:05:25.764Z,5.23
2019-01-08T06:07:56.685Z,9.50
2019-01-08T06:10:27.609Z,8.00
2019-01-08T06:12:58.590Z,8.53
2019-01-08T06:15:29.496Z,8.00
2019-01-08T06:18:00.440Z,9.20
2019-01-08T06:20:31.450Z,11.13
2019-01-08T06:23:02.390Z,7.83
2019-01-08T06:25:33.316Z,10.37
2019-01-08T06:28:04.283Z,12.27
2019-01-08T06:30:35.228Z,9.43
2019-01-08T06:33:06.159Z,12.23
2019-01-08T06:35:37.096Z,9.13
2019-01-08T06:38:08.049Z,12.53
2019-01-08T06:40:39.061Z,12.90
2019-01-08T06:43:09.989Z,13.77
2019-01-08T06:45:40.913Z,16.43
2019-01-08T06:48:11.833Z,15.43
2019-01-08T06:50:42.808Z,14.97
2019-01-08T06:53:13.751Z,15.63
2019-01-08T06:55:44.664Z,20.30
2019-01-08T06:58:15.583Z,16.10
2019-01-08T07:00:46.540Z,20.60
2019-01-08T07:03:17.463Z,21.60
2019-01-08T07:05:48.367Z,21.97
2019-01-08T07:08:19.287Z,21.50
2019-01-08T07:10:50.736Z,20.87
2019-01-08T07:13:21.619Z,22.93
2019-01-08T07:15:52.540Z,20.30
2019-01-08T07:18:23.471Z,23.43
2019-01-08T07:20:54.451Z,18.63
2019-01-08T07:23:25.375Z,19.37
2019-01-08T07:25:56.291Z,19.80
2019-01-08T07:28:29.257Z,22.97
2019-01-08T07:30:59.926Z,23.60
2019-01-08T07:33:30.845Z,21.43
2019-01-08T07:36:01.779Z,21.40
2019-01-08T07:38:32.704Z,20.30
2019-01-08T07:41:03.962Z,19.60
2019-01-08T07:43:34.876Z,22.03
2019-01-08T07:46:05.828Z,23.13
2019-01-08T07:48:36.814Z,24.30
2019-01-08T07:51:07.775Z,23.80
2019-01-08T07:53:38.751Z,22.73
2019-01-08T07:56:09.674Z,20.27
2019-01-08T07:58:40.661Z,23.10
2019-01-08T08:01:11.572Z,22.37
2019-01-08T08:03:42.486Z,24.00
2019-01-08T08:06:13.427Z,19.97
2019-01-08T08:08:44.341Z,23.53
2019-01-08T08:11:15.260Z,24.30
2019-01-08T08:13:46.204Z,25.23
2019-01-08T08:16:17.153Z,21.77
2019-01-08T08:18:48.116Z,24.53
2019-01-08T08:21:19.037Z,23.77
2019-01-08T08:23:49.990Z,21.80
2019-01-08T08:26:20.923Z,22.00
2019-01-08T08:28:51.871Z,28.07
2019-01-08T08:31:22.834Z,22.83
2019-01-08T08:33:53.832Z,19.70
2019-01-08T08:36:24.844Z,22.47
2019-01-08T08:38:55.988Z,21.23
2019-01-08T08:41:26.970Z,21.07
2019-01-08T08:43:58.193Z,18.23
2019-01-08T08:46:29.144Z,27.57
2019-01-08T08:49:00.335Z,18.20
2019-01-08T08:51:31.295Z,18.13
2019-01-08T08:54:03.285Z,20.57
2019-01-08T08:56:34.250Z,17.43
2019-01-08T08:59:05.166Z,26.00
2019-01-08T09:01:36.174Z,28.83
2019-01-08T09:04:07.165Z,26.23
2019-01-08T09:06:38.376Z,25.00
2019-01-08T09:09:09.956Z,26.03
2019-01-08T09:11:40.921Z,25.93
2019-01-08T09:14:11.877Z,22.47
2019-01-08T09:16:42.793Z,24.60
2019-01-08T09:19:13.768Z,19.23
2019-01-08T09:21:44.707Z,24.60
2019-01-08T09:24:15.641Z,18.80
2019-01-08T09:26:46.559Z,19.87
2019-01-08T09:29:17.494Z,16.43
2019-01-08T09:31:48.461Z,21.67
2019-01-08T09:34:19.491Z,15.70
2019-01-08T09:36:50.422Z,26.10
2019-01-08T09:39:21.395Z,19.83
2019-01-08T09:41:52.299Z,16.37
2019-01-08T09:44:23.265Z,18.93
2019-01-08T09:46:54.212Z,22.83
2019-01-08T09:49:26.119Z,20.93
2019-01-08T09:51:57.074Z,18.00
2019-01-08T09:54:28.041Z,18.77
2019-01-08T09:56:58.953Z,21.20
2019-01-08T09:59:29.873Z,21.43
2019-01-08T10:02:00.795Z,20.40
2019-01-08T10:04:31.893Z,19.87
2019-01-08T10:07:03.055Z,22.30
2019-01-08T10:09:34.115Z,24.20
2019-01-08T10:12:05.138Z,15.07
2019-01-08T10:14:36.056Z,20.03
2019-01-08T10:17:07.110Z,17.93
2019-01-08T10:19:38.036Z,16.53
2019-01-08T10:22:09.088Z,20.10
2019-01-08T10:24:40.160Z,20.70
2019-01-08T10:27:11.098Z,22.30
2019-01-08T10:29:42.194Z,18.53
2019-01-08T10:32:13.544Z,17.57
2019-01-08T10:34:44.595Z,16.83
2019-01-08T10:37:15.649Z,18.93
2019-01-08T10:39:46.610Z,24.57
2019-01-08T10:42:17.567Z,15.77
2019-01-08T10:44:48.714Z,19.20
2019-01-08T10:47:19.619Z,19.60
2019-01-08T10:49:50.580Z,12.67
2019-01-08T10:52:21.487Z,16.40
2019-01-08T10:54:52.469Z,16.23
2019-01-08T10:57:24.483Z,21.07
2019-01-08T10:59:55.472Z,14.73
2019-01-08T11:02:26.378Z,18.90
2019-01-08T11:04:57.434Z,18.03
2019-01-08T11:07:28.430Z,16.23
2019-01-08T11:09:59.384Z,16.43
2019-01-08T11:12:30.306Z,16.10
2019-01-08T11:15:01.285Z,15.73
2019-01-08T11:17:32.260Z,13.67
2019-01-08T11:20:03.211Z,13.63
2019-01-08T11:22:34.121Z,14.30
2019-01-08T11:25:05.086Z,15.83
2019-01-08T11:27:36.089Z,15.77
2019-01-08T11:30:07.378Z,11.70
2019-01-08T11:32:38.377Z,10.37
2019-01-08T11:35:09.418Z,12.90
2019-01-08T11:37:40.418Z,11.87
2019-01-08T11:40:11.364Z,15.67
2019-01-08T11:42:42.341Z,14.93
2019-01-08T11:45:13.285Z,8.87
2019-01-08T11:47:45.188Z,11.63
2019-01-08T11:50:16.108Z,11.60
2019-01-08T11:52:48.021Z,7.97
2019-01-08T11:55:19.024Z,11.57
2019-01-08T11:57:50.265Z,9.90
2019-01-08T12:00:21.586Z,15.20
2019-01-08T12:02:52.493Z,14.37
2019-01-08T12:05:23.472Z,12.77
2019-01-08T12:07:54.468Z,14.63
2019-01-08T12:10:26.116Z,13.73
2019-01-08T12:12:57.051Z,12.40
2019-01-08T12:15:27.981Z,9.40
2019-01-08T12:17:59.034Z,12.60
2019-01-08T12:20:29.976Z,14.40
2019-01-08T12:23:00.906Z,13.60
2019-01-08T12:25:31.807Z,12.70
2019-01-08T12:28:02.809Z,11.77
2019-01-08T12:30:33.824Z,13.43
2019-01-08T12:33:04.862Z,16.60
2019-01-08T12:35:35.992Z,14.60
2019-01-08T12:38:06.939Z,15.07
2019-01-08T12:40:37.918Z,12.90
2019-01-08T12:43:08.845Z,11.60
2019-01-08T12:45:39.876Z,11.47
2019-01-08T12:48:10.849Z,9.67
2019-01-08T12:50:41.794Z,12.77
2019-01-08T12:53:12.735Z,15.27
2019-01-08T12:55:43.672Z,14.47
2019-01-08T12:58:14.663Z,11.77
2019-01-08T13:00:45.687Z,13.43
2019-01-08T13:03:16.610Z,14.90
2019-01-08T13:05:47.519Z,14.87
2019-01-08T13:08:18.447Z,18.87
2019-01-08T13:10:49.442Z,18.37
2019-01-08T13:13:20.452Z,17.33
2019-01-08T13:15:51.499Z,19.93
2019-01-08T13:18:22.442Z,18.53
2019-01-08T13:20:53.375Z,18.80
2019-01-08T13:23:24.329Z,17.30
2019-01-08T13:25:55.294Z,22.07
2019-01-08T13:28:26.331Z,20.57
2019-01-08T13:30:57.342Z,15.37
2019-01-08T13:33:28.352Z,17.07
2019-01-08T13:35:59.385Z,16.80
2019-01-08T13:38:30.469Z,15.07
2019-01-08T13:41:01.469Z,13.33
2019-01-08T13:43:32.575Z,11.40
2019-01-08T13:46:04.700Z,13.87
2019-01-08T13:48:35.961Z,12.47
2019-01-08T13:51:07.214Z,11.93
2019-01-08T13:53:38.207Z,11.10
2019-01-08T13:56:09.347Z,10.30
2019-01-08T13:58:40.682Z,11.47
2019-01-08T14:01:11.776Z,13.73
2019-01-08T14:03:42.844Z,10.93
2019-01-08T14:06:13.883Z,10.50
2019-01-08T14:08:44.969Z,11.13
2019-01-08T14:11:16.049Z,7.97
2019-01-08T14:13:47.161Z,9.17
2019-01-08T14:16:18.305Z,11.27
2019-01-08T14:18:49.536Z,9.37
2019-01-08T14:21:20.536Z,8.73
2019-01-08T14:23:51.607Z,9.73
2019-01-08T14:26:22.608Z,8.87
2019-01-08T14:28:53.711Z,12.37
2019-01-08T14:31:24.720Z,8.80
2019-01-08T14:33:55.744Z,10.07
2019-01-08T14:36:26.718Z,6.33
2019-01-08T14:38:57.714Z,7.17
2019-01-08T14:41:28.666Z,10.43
2019-01-08T14:43:59.644Z,6.27
2019-01-08T14:46:30.590Z,8.20
2019-01-08T14:49:01.584Z,8.10
2019-01-08T14:51:32.584Z,8.43
2019-01-08T14:54:04.613Z,8.30
2019-01-08T14:56:35.565Z,7.90
2019-01-08T14:59:06.540Z,8.13
2019-01-08T15:01:37.488Z,9.30
2019-01-08T15:04:08.529Z,10.13
2019-01-08T15:06:39.619Z,11.10
2019-01-08T15:09:10.646Z,11.53
2019-01-08T15:11:41.687Z,10.50
2019-01-08T15:14:12.600Z,13.63
2019-01-08T15:16:43.742Z,13.50
2019-01-08T15:19:14.657Z,12.57
2019-01-08T15:21:45.674Z,15.63
2019-01-08T15:24:16.585Z,12.57
2019-01-08T15:26:47.614Z,12.53
2019-01-08T15:29:18.594Z,10.53
2019-01-08T15:31:49.512Z,9.43
2019-01-08T15:34:20.538Z,12.40
2019-01-08T15:36:51.635Z,12.33
2019-01-08T15:39:22.620Z,9.77
2019-01-08T15:41:53.537Z,12.93
2019-01-08T15:44:24.511Z,11.97
2019-01-08T15:46:56.523Z,9.37
2019-01-08T15:49:27.557Z,10.83
2019-01-08T15:51:58.499Z,9.93
2019-01-08T15:54:29.493Z,12.63
2019-01-08T15:57:00.533Z,11.83
2019-01-08T15:59:31.472Z,25.30
2019-01-08T16:02:02.600Z,30.97
2019-01-08T16:04:33.626Z,137.77
2019-01-08T16:07:05.667Z,106.93
2019-01-08T16:09:36.614Z,30.13
2019-01-08T16:12:07.722Z,11.57
2019-01-08T16:14:38.672Z,27.30
2019-01-08T16:17:17.055Z,15.43
2019-01-08T16:19:48.046Z,30.73
2019-01-08T16:22:18.971Z,40.40
2019-01-08T16:24:49.941Z,28.13
2019-01-08T16:27:20.875Z,22.87
2019-01-08T16:29:51.877Z,14.80
2019-01-08T16:32:22.776Z,14.27
2019-01-08T16:34:53.747Z,12.17
2019-01-08T16:37:25.843Z,14.80
2019-01-08T16:39:56.795Z,11.77
2019-01-08T16:42:27.702Z,13.53
2019-01-08T16:44:58.899Z,14.10
2019-01-08T16:47:29.818Z,17.87
2019-01-08T16:50:00.810Z,21.00
2019-01-08T16:52:31.876Z,16.07
2019-01-08T16:55:02.828Z,17.13
2019-01-08T16:57:33.788Z,21.27
2019-01-08T17:00:05.840Z,18.97
2019-01-08T17:02:36.857Z,23.00
2019-01-08T17:05:07.859Z,20.03
2019-01-08T17:07:38.946Z,18.90
2019-01-08T17:10:09.923Z,19.50
2019-01-08T17:12:40.889Z,20.77
2019-01-08T17:15:11.873Z,25.87
2019-01-08T17:17:42.795Z,28.20
2019-01-08T17:20:13.840Z,36.63
2019-01-08T17:22:44.814Z,20.83
2019-01-08T17:25:16.826Z,15.73
2019-01-08T17:27:47.834Z,16.83
2019-01-08T17:30:18.816Z,17.60
2019-01-08T17:32:49.849Z,13.13
2019-01-08T17:35:20.849Z,17.57
2019-01-08T17:37:51.845Z,15.47
2019-01-08T17:40:22.851Z,18.43
2019-01-08T17:42:53.891Z,16.33
2019-01-08T17:45:24.942Z,13.33
2019-01-08T17:47:56.158Z,18.27
2019-01-08T17:50:27.145Z,14.33
2019-01-08T17:52:58.279Z,18.70
2019-01-08T17:55:29.276Z,17.97
2019-01-08T17:58:40.790Z,18.47
2019-01-08T18:01:29.939Z,27.37
2019-01-08T18:04:00.895Z,21.73
2019-01-08T18:06:31.935Z,16.20
2019-01-08T18:09:05.777Z,17.73
2019-01-08T18:11:36.986Z,16.43
2019-01-08T18:14:08.016Z,15.90
2019-01-08T18:16:39.314Z,12.90
2019-01-08T18:19:10.622Z,12.00
2019-01-08T18:21:41.671Z,16.70
2019-01-08T18:24:12.841Z,9.50
2019-01-08T18:26:43.940Z,10.40
2019-01-08T18:29:15.925Z,7.77
2019-01-08T18:31:46.998Z,13.37
2019-01-08T18:34:18.012Z,16.37
2019-01-08T18:36:49.018Z,22.50
2019-01-08T18:39:20.089Z,24.37
2019-01-08T18:41:51.057Z,26.67
2019-01-08T18:44:22.045Z,14.07
2019-01-08T18:46:53.136Z,18.47
2019-01-08T18:49:24.208Z,14.23
2019-01-08T18:51:55.205Z,13.00
2019-01-08T18:54:28.103Z,12.13
2019-01-08T18:56:58.788Z,12.87
2019-01-08T18:59:30.797Z,7.50
2019-01-08T19:02:01.741Z,8.13
2019-01-08T19:04:32.781Z,8.17
2019-01-08T19:07:03.739Z,7.30
2019-01-08T19:09:36.505Z,8.40
2019-01-08T19:12:19.469Z,8.53
2019-01-08T19:14:51.449Z,6.17
2019-01-08T19:17:22.450Z,6.00
2019-01-08T19:19:53.367Z,7.77
2019-01-08T19:22:24.363Z,5.60
2019-01-08T19:24:55.346Z,5.87
2019-01-08T19:27:27.351Z,6.90
2019-01-08T19:29:58.267Z,13.30
2019-01-08T19:32:29.254Z,14.63
2019-01-08T19:35:00.230Z,8.73
2019-01-08T19:37:31.252Z,10.67
2019-01-08T19:40:02.199Z,5.07
2019-01-08T19:42:33.248Z,4.23
2019-01-08T19:45:04.329Z,3.77
2019-01-08T19:47:35.490Z,6.57
2019-01-08T19:50:09.006Z,6.17
2019-01-08T19:52:40.261Z,4.70
2019-01-08T19:55:11.263Z,5.27
2019-01-08T19:57:42.221Z,5.57
2019-01-08T20:00:13.820Z,11.27
2019-01-08T20:02:44.977Z,4.83
2019-01-08T20:05:17.076Z,8.53
2019-01-08T20:07:48.222Z,8.10
2019-01-08T20:10:19.234Z,6.07
2019-01-08T20:12:50.302Z,5.33
2019-01-08T20:15:21.213Z,2.83
2019-01-08T20:17:52.236Z,3.60
2019-01-08T20:20:23.237Z,3.63
2019-01-08T20:22:54.203Z,2.00
2019-01-08T20:25:25.189Z,3.30
2019-01-08T20:27:56.240Z,3.17
2019-01-08T20:30:27.266Z,4.17
2019-01-08T20:32:58.298Z,3.93
2019-01-08T20:35:29.248Z,4.03
2019-01-08T20:38:00.264Z,5.80
2019-01-08T20:40:31.210Z,4.77
2019-01-08T20:43:02.212Z,9.77
2019-01-08T20:45:33.256Z,6.03
2019-01-08T20:48:04.432Z,7.47
2019-01-08T20:50:35.473Z,10.60
2019-01-08T20:53:06.467Z,10.33
2019-01-08T20:55:37.597Z,8.40
2019-01-08T20:58:08.639Z,7.90
2019-01-08T21:00:39.945Z,6.33
2019-01-08T21:03:11.045Z,6.20
2019-01-08T21:05:42.137Z,7.30
2019-01-08T21:08:13.212Z,7.40
2019-01-08T21:10:44.229Z,7.63
2019-01-08T21:13:15.168Z,7.17
2019-01-08T21:15:46.163Z,6.57
2019-01-08T21:18:17.133Z,8.33
2019-01-08T21:20:48.593Z,6.73
2019-01-08T21:23:19.667Z,6.33
2019-01-08T21:25:50.602Z,11.03
2019-01-08T21:28:21.606Z,12.97
2019-01-08T21:30:52.541Z,9.90
2019-01-08T21:33:23.500Z,7.63
2019-01-08T21:35:54.518Z,13.03
2019-01-08T21:38:25.525Z,10.20
2019-01-08T21:40:56.645Z,9.20
2019-01-08T21:43:27.675Z,11.27
2019-01-08T21:45:58.614Z,10.90
2019-01-08T21:48:29.647Z,13.37
2019-01-08T21:51:00.591Z,12.40
2019-01-08T21:53:32.547Z,12.30
2019-01-08T21:56:03.613Z,12.77
2019-01-08T21:58:34.638Z,16.83
2019-01-08T22:01:05.623Z,13.03
2019-01-08T22:03:36.559Z,11.87
2019-01-08T22:06:07.555Z,12.27
2019-01-08T22:08:39.667Z,11.13
2019-01-08T22:11:10.643Z,14.17
2019-01-08T22:13:41.580Z,14.33
2019-01-08T22:16:12.536Z,12.53
2019-01-08T22:18:43.532Z,11.17
2019-01-08T22:21:27.902Z,11.97
2019-01-08T22:23:58.925Z,13.97
2019-01-08T22:26:29.902Z,11.80
2019-01-08T22:29:00.893Z,12.30
2019-01-08T22:31:31.928Z,13.93
2019-01-08T22:34:02.935Z,15.47
2019-01-08T22:36:33.953Z,12.30
2019-01-08T22:39:05.623Z,13.57
2019-01-08T22:41:37.651Z,13.53
2019-01-08T22:44:08.608Z,11.67
2019-01-08T22:46:39.600Z,10.43
2019-01-08T22:49:10.561Z,10.80
2019-01-08T22:51:41.491Z,13.33
2019-01-08T22:54:12.403Z,11.27
2019-01-08T22:56:44.561Z,20.47
2019-01-08T22:59:15.536Z,12.07
2019-01-08T23:01:51.541Z,11.90
2019-01-08T23:04:23.820Z,13.33
2019-01-08T23:07:07.056Z,13.30
2019-01-08T23:09:39.155Z,11.03
2019-01-08T23:12:11.822Z,11.50
2019-01-08T23:14:43.981Z,13.53
2019-01-08T23:17:16.382Z,13.47
2019-01-08T23:19:50.130Z,10.53
2019-01-08T23:22:27.143Z,11.40
2019-01-08T23:24:58.140Z,13.33
2019-01-08T23:27:29.189Z,15.20
2019-01-08T23:30:00.088Z,9.27
2019-01-08T23:32:31.162Z,10.23
2019-01-08T23:35:02.108Z,10.93
2019-01-08T23:37:33.142Z,8.87
2019-01-08T23:40:04.178Z,11.60
2019-01-08T23:42:35.175Z,9.83
2019-01-08T23:45:07.025Z,9.63
2019-01-08T23:47:38.030Z,10.43
2019-01-08T23:50:09.126Z,11.10
2019-01-08T23:52:56.753Z,12.77
2019-01-08T23:55:28.148Z,9.57
2019-01-08T23:57:59.242Z,10.50
